createdAt,value
2018-03-24T00:01:10.549Z,1.40
2018-03-24T00:03:36.965Z,1.40
2018-03-24T00:06:03.434Z,1.40
2018-03-24T00:08:29.976Z,1.30
2018-03-24T00:10:56.407Z,1.30
2018-03-24T00:13:22.932Z,1.30
2018-03-24T00:15:49.409Z,1.40
2018-03-24T00:18:15.921Z,1.30
2018-03-24T00:20:42.318Z,1.20
2018-03-24T00:23:08.722Z,1.20
2018-03-24T00:25:35.141Z,1.20
2018-03-24T00:28:01.643Z,1.30
2018-03-24T00:30:28.299Z,1.20
2018-03-24T00:32:55.541Z,1.10
2018-03-24T00:35:21.974Z,1.00
2018-03-24T00:37:48.481Z,1.00
2018-03-24T00:40:14.924Z,1.00
2018-03-24T00:42:41.416Z,1.00
2018-03-24T00:45:08.627Z,0.90
2018-03-24T00:47:35.052Z,0.90
2018-03-24T00:50:01.530Z,1.00
2018-03-24T00:52:27.988Z,1.00
2018-03-24T00:54:55.146Z,1.00
2018-03-24T00:57:21.653Z,1.00
2018-03-24T00:59:48.074Z,0.90
2018-03-24T01:02:14.545Z,0.90
2018-03-24T01:04:41.832Z,0.80
2018-03-24T01:07:08.236Z,0.80
2018-03-24T01:09:35.416Z,0.70
2018-03-24T01:12:01.886Z,0.70
2018-03-24T01:14:28.345Z,0.70
2018-03-24T01:16:55.529Z,0.80
2018-03-24T01:19:22.626Z,0.80
2018-03-24T01:21:49.206Z,0.70
2018-03-24T01:24:15.605Z,0.80
2018-03-24T01:26:42.054Z,0.70
2018-03-24T01:29:08.578Z,0.70
2018-03-24T01:31:35.302Z,0.80
2018-03-24T01:34:02.062Z,0.80
2018-03-24T01:36:28.453Z,0.80
2018-03-24T01:38:55.633Z,0.80
2018-03-24T01:41:22.117Z,0.70
2018-03-24T01:43:48.585Z,0.80
2018-03-24T01:46:15.033Z,0.80
2018-03-24T01:48:41.534Z,0.70
2018-03-24T01:51:08.256Z,0.70
2018-03-24T01:53:47.246Z,0.60
2018-03-24T01:56:14.520Z,0.60
2018-03-24T01:58:41.164Z,0.60
2018-03-24T02:01:07.725Z,0.60
2018-03-24T02:03:34.195Z,0.70
2018-03-24T02:06:00.702Z,0.90
2018-03-24T02:08:27.425Z,0.90
2018-03-24T02:10:53.946Z,0.90
2018-03-24T02:13:20.495Z,0.90
2018-03-24T02:15:47.192Z,0.90
2018-03-24T02:18:14.408Z,0.80
2018-03-24T02:20:41.088Z,0.80
2018-03-24T02:23:08.311Z,1.00
2018-03-24T02:25:34.894Z,0.90
2018-03-24T02:28:01.720Z,1.00
2018-03-24T02:30:28.195Z,0.90
2018-03-24T02:32:55.482Z,0.80
2018-03-24T02:35:22.669Z,0.80
2018-03-24T02:37:49.954Z,0.80
2018-03-24T02:40:16.567Z,0.80
2018-03-24T02:42:43.252Z,0.80
2018-03-24T02:45:09.718Z,0.80
2018-03-24T02:47:37.128Z,0.80
2018-03-24T02:50:03.718Z,0.70
2018-03-24T02:52:30.298Z,0.70
2018-03-24T02:54:56.913Z,0.80
2018-03-24T02:57:23.477Z,0.80
2018-03-24T02:59:50.008Z,0.80
2018-03-24T03:02:16.500Z,0.80
2018-03-24T03:04:43.331Z,0.70
2018-03-24T03:07:09.910Z,0.70
2018-03-24T03:09:37.578Z,0.70
2018-03-24T03:12:04.937Z,0.70
2018-03-24T03:14:31.439Z,0.70
2018-03-24T03:16:57.968Z,0.80
2018-03-24T03:19:24.432Z,0.80
2018-03-24T03:21:51.875Z,0.80
2018-03-24T03:24:18.320Z,0.80
2018-03-24T03:26:45.552Z,0.70
2018-03-24T03:29:12.399Z,0.70
2018-03-24T03:31:38.977Z,0.70
2018-03-24T03:34:05.432Z,0.70
2018-03-24T03:36:31.873Z,0.70
2018-03-24T03:38:58.349Z,0.60
2018-03-24T03:41:25.548Z,0.60
2018-03-24T03:43:52.025Z,0.70
2018-03-24T03:46:18.542Z,0.70
2018-03-24T03:48:45.141Z,0.60
2018-03-24T03:51:11.532Z,0.60
2018-03-24T03:53:38.349Z,0.60
2018-03-24T03:56:05.523Z,0.50
2018-03-24T03:58:32.004Z,0.50
2018-03-24T04:00:58.440Z,0.60
2018-03-24T04:03:24.882Z,0.60
2018-03-24T04:05:51.357Z,0.50
2018-03-24T04:08:17.855Z,0.40
2018-03-24T04:10:44.366Z,0.50
2018-03-24T04:13:10.875Z,0.40
2018-03-24T04:15:38.081Z,0.30
2018-03-24T04:18:04.587Z,0.30
2018-03-24T04:20:31.068Z,0.30
2018-03-24T04:22:57.462Z,0.30
2018-03-24T04:25:23.878Z,0.30
2018-03-24T04:27:51.031Z,0.20
2018-03-24T04:30:17.465Z,0.30
2018-03-24T04:32:43.872Z,0.30
2018-03-24T04:35:10.408Z,0.30
2018-03-24T04:37:37.682Z,0.40
2018-03-24T04:40:04.888Z,0.40
2018-03-24T04:42:31.324Z,0.50
2018-03-24T04:44:57.792Z,0.40
2018-03-24T04:47:24.202Z,0.50
2018-03-24T04:49:50.660Z,0.40
2018-03-24T04:52:17.140Z,0.30
2018-03-24T04:54:43.592Z,0.30
2018-03-24T04:57:10.295Z,0.20
2018-03-24T04:59:36.776Z,0.20
2018-03-24T05:02:03.253Z,0.20
2018-03-24T05:04:29.697Z,0.20
2018-03-24T05:06:56.146Z,0.20
2018-03-24T05:09:22.599Z,0.20
2018-03-24T05:11:49.836Z,0.40
2018-03-24T05:14:16.453Z,0.30
2018-03-24T05:16:42.894Z,0.40
2018-03-24T05:19:10.213Z,0.30
2018-03-24T05:21:36.626Z,0.30
2018-03-24T05:24:03.125Z,0.40
2018-03-24T05:26:29.545Z,0.40
2018-03-24T05:28:56.748Z,0.40
2018-03-24T05:31:23.262Z,0.40
2018-03-24T05:33:50.472Z,0.50
2018-03-24T05:36:16.958Z,0.50
2018-03-24T05:38:43.397Z,0.50
2018-03-24T05:41:10.029Z,0.50
2018-03-24T05:43:36.435Z,0.50
2018-03-24T05:46:02.898Z,0.50
2018-03-24T05:48:29.410Z,0.50
2018-03-24T05:50:56.658Z,0.60
2018-03-24T05:53:23.070Z,0.60
2018-03-24T05:55:50.224Z,0.70
2018-03-24T05:58:16.689Z,0.70
2018-03-24T06:00:43.070Z,0.80
2018-03-24T06:03:10.437Z,0.80
2018-03-24T06:05:36.913Z,0.80
2018-03-24T06:08:03.360Z,0.90
2018-03-24T06:10:29.906Z,1.30
2018-03-24T06:12:56.406Z,2.30
2018-03-24T06:15:22.840Z,3.70
2018-03-24T06:17:49.341Z,5.50
2018-03-24T06:20:15.853Z,6.50
2018-03-24T06:22:42.338Z,6.10
2018-03-24T06:25:08.796Z,6.40
2018-03-24T06:27:35.296Z,7.40
2018-03-24T06:30:02.535Z,8.00
2018-03-24T06:32:29.038Z,8.00
2018-03-24T06:34:55.547Z,8.40
2018-03-24T06:37:22.092Z,8.50
2018-03-24T06:39:48.503Z,8.40
2018-03-24T06:42:14.946Z,8.80
2018-03-24T06:44:41.391Z,9.50
2018-03-24T06:47:07.844Z,9.50
2018-03-24T06:49:34.355Z,10.10
2018-03-24T06:52:00.888Z,10.10
2018-03-24T06:54:27.300Z,9.60
2018-03-24T06:56:54.524Z,9.60
2018-03-24T06:59:20.982Z,9.60
2018-03-24T07:01:47.409Z,8.80
2018-03-24T07:04:13.819Z,8.20
2018-03-24T07:06:40.238Z,9.00
2018-03-24T07:09:06.690Z,9.00
2018-03-24T07:11:33.228Z,9.30
2018-03-24T07:13:59.771Z,9.70
2018-03-24T07:16:26.359Z,8.30
2018-03-24T07:21:25.802Z,9.90
2018-03-24T07:23:52.269Z,8.90
2018-03-24T07:26:18.770Z,9.50
2018-03-24T07:28:45.442Z,10.30
2018-03-24T07:31:11.914Z,10.90
2018-03-24T07:33:38.342Z,11.10
2018-03-24T07:36:04.779Z,10.70
2018-03-24T07:38:31.221Z,10.60
2018-03-24T07:40:57.753Z,10.50
2018-03-24T07:43:24.290Z,10.00
2018-03-24T07:45:50.761Z,10.20
2018-03-24T07:48:17.189Z,10.50
2018-03-24T07:50:44.567Z,10.30
2018-03-24T07:53:11.015Z,10.30
2018-03-24T07:55:38.266Z,8.80
2018-03-24T07:58:05.434Z,8.10
2018-03-24T08:00:31.873Z,8.00
2018-03-24T08:02:59.694Z,7.00
2018-03-24T08:05:26.120Z,7.00
2018-03-24T08:07:52.562Z,8.40
2018-03-24T08:10:19.111Z,8.70
2018-03-24T08:12:46.320Z,8.40
2018-03-24T08:15:12.771Z,8.40
2018-03-24T08:17:39.240Z,8.20
2018-03-24T08:20:05.714Z,7.50
2018-03-24T08:22:32.172Z,7.00
2018-03-24T08:24:58.593Z,6.40
2018-03-24T08:27:25.074Z,5.60
2018-03-24T08:29:51.482Z,4.80
2018-03-24T08:32:17.900Z,4.50
2018-03-24T08:34:44.581Z,4.00
2018-03-24T08:37:11.845Z,3.70
2018-03-24T08:39:38.326Z,3.70
2018-03-24T08:42:04.782Z,3.90
2018-03-24T08:44:31.197Z,3.90
2018-03-24T08:46:57.650Z,4.10
2018-03-24T08:49:24.156Z,4.10
2018-03-24T08:51:51.473Z,4.10
2018-03-24T08:54:18.221Z,4.10
2018-03-24T08:56:44.714Z,3.90
2018-03-24T08:59:12.104Z,3.70
2018-03-24T09:01:39.296Z,3.70
2018-03-24T09:04:05.806Z,3.70
2018-03-24T09:06:32.300Z,3.70
2018-03-24T09:08:58.871Z,3.60
2018-03-24T09:11:26.527Z,3.70
2018-03-24T09:13:53.038Z,3.40
2018-03-24T09:16:20.281Z,3.30
2018-03-24T09:18:47.563Z,3.30
2018-03-24T09:21:14.097Z,3.30
2018-03-24T09:23:40.592Z,3.30
2018-03-24T09:26:07.042Z,3.30
2018-03-24T09:28:34.310Z,3.10
2018-03-24T09:31:00.746Z,3.10
2018-03-24T09:33:27.190Z,3.30
2018-03-24T09:35:53.789Z,3.20
2018-03-24T09:38:20.295Z,3.20
2018-03-24T09:40:46.690Z,3.20
2018-03-24T09:43:13.152Z,3.30
2018-03-24T09:45:39.630Z,3.40
2018-03-24T09:48:06.169Z,3.50
2018-03-24T09:50:32.936Z,3.60
2018-03-24T09:52:59.423Z,3.60
2018-03-24T09:55:25.892Z,3.60
2018-03-24T09:57:52.330Z,3.70
2018-03-24T10:00:19.558Z,3.70
2018-03-24T10:02:46.164Z,3.60
2018-03-24T10:05:12.884Z,3.60
2018-03-24T10:07:39.312Z,3.60
2018-03-24T10:10:06.156Z,3.80
2018-03-24T10:12:32.796Z,3.80
2018-03-24T10:14:59.549Z,3.70
2018-03-24T10:17:26.111Z,3.90
2018-03-24T10:19:52.611Z,3.90
2018-03-24T10:25:28.928Z,4.30
2018-03-24T10:27:55.428Z,4.30
2018-03-24T10:30:21.848Z,4.20
2018-03-24T10:32:49.005Z,4.00
2018-03-24T10:35:16.146Z,3.90
2018-03-24T10:37:59.336Z,3.90
2018-03-24T10:40:25.872Z,3.90
2018-03-24T10:42:59.123Z,4.00
2018-03-24T10:45:25.647Z,4.00
2018-03-24T10:47:52.067Z,4.00
2018-03-24T10:50:18.509Z,3.90
2018-03-24T10:52:45.912Z,3.90
2018-03-24T10:55:12.334Z,3.90
2018-03-24T10:57:38.956Z,3.90
2018-03-24T11:00:05.393Z,3.90
2018-03-24T11:02:31.837Z,3.90
2018-03-24T11:04:58.290Z,3.90
2018-03-24T11:07:24.742Z,4.10
2018-03-24T11:09:51.133Z,4.20
2018-03-24T11:12:17.635Z,4.20
2018-03-24T11:14:44.209Z,4.20
2018-03-24T11:17:10.795Z,4.20
2018-03-24T11:19:37.294Z,4.40
2018-03-24T11:22:03.828Z,4.80
2018-03-24T11:24:31.284Z,4.80
2018-03-24T11:26:57.744Z,4.80
2018-03-24T11:29:24.281Z,4.80
2018-03-24T11:31:50.757Z,4.90
2018-03-24T11:34:17.243Z,4.60
2018-03-24T11:36:44.656Z,5.00
2018-03-24T11:39:11.182Z,5.00
2018-03-24T11:41:38.650Z,5.00
2018-03-24T11:44:05.917Z,5.20
2018-03-24T11:46:32.508Z,5.20
2018-03-24T11:48:59.103Z,4.90
2018-03-24T11:51:25.573Z,4.80
2018-03-24T11:53:52.096Z,4.70
2018-03-24T11:56:18.556Z,4.60
2018-03-24T11:58:45.221Z,4.60
2018-03-24T12:01:11.669Z,4.70
2018-03-24T12:03:38.121Z,4.60
2018-03-24T12:06:04.689Z,4.40
2018-03-24T12:08:31.277Z,4.40
2018-03-24T12:10:57.687Z,4.30
2018-03-24T12:13:24.958Z,4.40
2018-03-24T12:15:51.526Z,4.40
2018-03-24T12:18:18.092Z,4.40
2018-03-24T12:20:44.716Z,4.50
2018-03-24T12:23:11.416Z,4.50
2018-03-24T12:25:37.942Z,4.50
2018-03-24T12:28:04.386Z,4.70
2018-03-24T12:30:30.944Z,5.00
2018-03-24T12:32:57.371Z,5.20
2018-03-24T12:35:24.014Z,5.10
2018-03-24T12:37:50.808Z,5.20
2018-03-24T12:40:17.306Z,5.20
2018-03-24T12:42:43.741Z,5.10
2018-03-24T12:45:10.243Z,5.10
2018-03-24T12:47:36.892Z,5.20
2018-03-24T12:50:03.362Z,5.40
2018-03-24T12:52:29.966Z,5.50
2018-03-24T12:54:56.425Z,5.90
2018-03-24T12:57:22.948Z,5.90
2018-03-24T12:59:50.176Z,7.20
2018-03-24T13:02:17.216Z,7.20
2018-03-24T13:04:43.682Z,7.50
2018-03-24T13:07:10.233Z,7.50
2018-03-24T13:09:36.820Z,7.30
2018-03-24T13:12:03.347Z,6.70
2018-03-24T13:14:30.691Z,6.00
2018-03-24T13:16:57.885Z,6.00
2018-03-24T13:19:24.318Z,5.90
2018-03-24T13:21:50.840Z,6.00
2018-03-24T13:24:18.024Z,5.90
2018-03-24T13:26:44.586Z,5.90
2018-03-24T13:29:11.757Z,5.80
2018-03-24T13:31:39.077Z,5.90
2018-03-24T13:34:05.631Z,5.90
2018-03-24T13:36:32.161Z,5.80
2018-03-24T13:38:58.614Z,5.80
2018-03-24T13:41:26.081Z,5.90
2018-03-24T13:43:53.486Z,5.80
2018-03-24T13:46:19.995Z,5.80
2018-03-24T13:48:46.464Z,5.70
2018-03-24T13:51:12.957Z,5.70
2018-03-24T13:53:39.554Z,5.70
2018-03-24T13:56:06.077Z,5.70
2018-03-24T13:58:32.517Z,5.70
2018-03-24T14:00:59.037Z,5.70
2018-03-24T14:03:25.469Z,5.70
2018-03-24T14:05:52.241Z,5.60
2018-03-24T14:08:19.673Z,5.50
2018-03-24T14:10:46.208Z,5.50
2018-03-24T14:13:12.712Z,5.50
2018-03-24T14:15:40.259Z,5.50
2018-03-24T14:18:06.726Z,5.60
2018-03-24T14:20:33.328Z,5.50
2018-03-24T14:22:59.793Z,5.50
2018-03-24T14:25:26.330Z,5.50
2018-03-24T14:27:52.859Z,5.50
2018-03-24T14:30:19.373Z,5.50
2018-03-24T14:32:45.800Z,5.40
2018-03-24T14:35:13.027Z,5.50
2018-03-24T14:37:39.553Z,5.50
2018-03-24T14:40:06.877Z,5.50
2018-03-24T14:42:33.462Z,5.50
2018-03-24T14:45:00.794Z,5.60
2018-03-24T14:47:27.597Z,5.60
2018-03-24T14:49:54.118Z,5.70
2018-03-24T14:52:20.644Z,5.70
2018-03-24T14:54:47.826Z,5.80
2018-03-24T14:57:14.378Z,5.80
2018-03-24T14:59:40.789Z,5.80
2018-03-24T15:02:07.309Z,5.70
2018-03-24T15:04:33.760Z,5.70
2018-03-24T15:07:00.266Z,5.60
2018-03-24T15:09:27.474Z,5.50
2018-03-24T15:11:53.890Z,5.50
2018-03-24T15:14:20.274Z,5.50
2018-03-24T15:16:47.507Z,5.50
2018-03-24T15:19:13.958Z,5.50
2018-03-24T15:21:40.607Z,5.40
2018-03-24T15:24:07.817Z,5.50
2018-03-24T15:26:34.361Z,5.50
2018-03-24T15:29:12.984Z,5.50
2018-03-24T15:31:51.482Z,5.40
2018-03-24T15:34:30.161Z,5.50
2018-03-24T15:36:57.397Z,5.40
2018-03-24T15:39:24.683Z,5.40
2018-03-24T15:41:51.313Z,5.40
2018-03-24T15:44:17.883Z,5.30
2018-03-24T15:46:44.488Z,5.30
2018-03-24T15:49:11.125Z,5.30
2018-03-24T15:51:38.074Z,5.30
2018-03-24T15:54:04.589Z,5.30
2018-03-24T15:56:31.892Z,5.30
2018-03-24T15:58:58.411Z,5.30
2018-03-24T16:01:25.041Z,5.30
2018-03-24T16:03:51.620Z,5.30
2018-03-24T16:06:18.083Z,5.30
2018-03-24T16:08:45.398Z,5.30
2018-03-24T16:11:12.003Z,5.30
2018-03-24T16:13:39.469Z,5.30
2018-03-24T16:16:05.904Z,5.30
2018-03-24T16:18:32.479Z,5.30
2018-03-24T16:20:59.101Z,5.30
2018-03-24T16:23:26.600Z,5.20
2018-03-24T16:25:53.079Z,5.20
2018-03-24T16:28:20.307Z,5.20
2018-03-24T16:30:46.783Z,5.20
2018-03-24T16:33:14.338Z,5.10
2018-03-24T16:35:40.744Z,5.20
2018-03-24T16:38:07.307Z,5.20
2018-03-24T16:40:33.914Z,5.10
2018-03-24T16:43:01.141Z,5.10
2018-03-24T16:45:27.646Z,5.10
2018-03-24T16:47:55.140Z,5.10
2018-03-24T16:50:22.400Z,5.10
2018-03-24T16:52:48.853Z,5.10
2018-03-24T16:55:15.417Z,5.10
2018-03-24T16:57:42.376Z,5.10
2018-03-24T17:00:09.054Z,5.10
2018-03-24T17:02:35.521Z,5.10
2018-03-24T17:05:02.037Z,5.00
2018-03-24T17:07:28.601Z,5.00
2018-03-24T17:09:55.980Z,5.00
2018-03-24T17:12:22.443Z,5.00
2018-03-24T17:14:48.913Z,5.00
2018-03-24T17:17:15.562Z,5.00
2018-03-24T17:19:42.267Z,5.10
2018-03-24T17:22:09.009Z,5.00
2018-03-24T17:24:35.786Z,5.00
2018-03-24T17:27:02.537Z,5.00
2018-03-24T17:29:28.965Z,5.00
2018-03-24T17:31:55.470Z,5.00
2018-03-24T17:34:22.018Z,5.00
2018-03-24T17:36:48.513Z,5.00
2018-03-24T17:39:15.936Z,5.00
2018-03-24T17:41:42.690Z,5.00
2018-03-24T17:44:09.122Z,5.00
2018-03-24T17:46:35.648Z,5.00
2018-03-24T17:49:02.180Z,5.00
2018-03-24T17:51:28.829Z,5.00
2018-03-24T17:53:55.315Z,4.90
2018-03-24T17:56:21.924Z,5.00
2018-03-24T17:58:49.339Z,5.00
2018-03-24T18:01:15.780Z,5.00
2018-03-24T18:03:42.185Z,5.00
2018-03-24T18:06:08.604Z,5.00
2018-03-24T18:08:35.092Z,5.00
2018-03-24T18:11:01.541Z,5.00
2018-03-24T18:13:28.769Z,4.90
2018-03-24T18:15:55.360Z,4.90
2018-03-24T18:18:21.790Z,4.90
2018-03-24T18:20:48.947Z,5.00
2018-03-24T18:23:16.114Z,4.90
2018-03-24T18:25:43.312Z,4.90
2018-03-24T18:28:09.789Z,4.90
2018-03-24T18:30:37.040Z,4.80
2018-03-24T18:33:03.557Z,4.80
2018-03-24T18:35:30.153Z,4.80
2018-03-24T18:37:56.652Z,4.80
2018-03-24T18:40:23.981Z,4.80
2018-03-24T18:42:50.476Z,4.80
2018-03-24T18:45:16.993Z,4.80
2018-03-24T18:47:43.485Z,4.80
2018-03-24T18:50:09.929Z,4.80
2018-03-24T18:52:37.142Z,4.80
2018-03-24T18:55:03.732Z,4.80
2018-03-24T18:57:30.753Z,4.80
2018-03-24T18:59:57.995Z,4.80
2018-03-24T19:02:24.576Z,4.80
2018-03-24T19:04:54.206Z,4.80
2018-03-24T19:07:22.088Z,4.80
2018-03-24T19:09:48.535Z,4.80
2018-03-24T19:12:15.023Z,4.80
2018-03-24T19:14:41.630Z,4.80
2018-03-24T19:17:08.092Z,4.80
2018-03-24T19:19:38.401Z,4.70
2018-03-24T19:22:05.586Z,4.70
2018-03-24T19:24:32.350Z,4.70
2018-03-24T19:27:06.344Z,4.70
2018-03-24T19:29:34.980Z,4.80
2018-03-24T19:32:06.281Z,4.70
2018-03-24T19:34:32.801Z,4.70
2018-03-24T19:36:59.584Z,4.70
2018-03-24T19:39:26.130Z,4.70
2018-03-24T19:41:52.767Z,4.70
2018-03-24T19:44:19.525Z,4.70
2018-03-24T19:46:46.130Z,4.70
2018-03-24T19:49:12.673Z,4.70
2018-03-24T19:51:39.136Z,4.70
2018-03-24T19:54:06.376Z,4.70
2018-03-24T19:56:32.867Z,4.60
2018-03-24T19:58:59.297Z,4.70
2018-03-24T20:01:25.935Z,4.70
2018-03-24T20:03:52.376Z,4.60
2018-03-24T20:06:18.922Z,4.60
2018-03-24T20:08:45.659Z,4.60
2018-03-24T20:11:12.144Z,4.70
2018-03-24T20:13:39.389Z,4.60
2018-03-24T20:16:05.875Z,4.60
2018-03-24T20:18:32.473Z,4.60
2018-03-24T20:20:59.758Z,4.60
2018-03-24T20:23:26.225Z,4.50
2018-03-24T20:25:52.766Z,4.50
2018-03-24T20:28:19.329Z,4.50
2018-03-24T20:30:46.701Z,4.50
2018-03-24T20:33:13.165Z,4.50
2018-03-24T20:35:39.668Z,4.50
2018-03-24T20:38:06.808Z,4.40
2018-03-24T20:40:33.326Z,4.40
2018-03-24T20:43:00.628Z,4.40
2018-03-24T20:45:27.132Z,4.40
2018-03-24T20:47:53.600Z,4.30
2018-03-24T20:50:20.012Z,4.30
2018-03-24T20:52:47.252Z,4.30
2018-03-24T20:55:13.772Z,4.30
2018-03-24T20:57:40.928Z,4.30
2018-03-24T21:00:07.392Z,4.30
2018-03-24T21:02:34.560Z,4.30
2018-03-24T21:05:01.098Z,4.30
2018-03-24T21:07:27.617Z,4.30
2018-03-24T21:09:54.059Z,4.30
2018-03-24T21:12:20.509Z,4.30
2018-03-24T21:14:47.006Z,4.20
2018-03-24T21:17:14.122Z,4.20
2018-03-24T21:19:41.235Z,4.20
2018-03-24T21:22:07.765Z,4.20
2018-03-24T21:24:34.178Z,4.20
2018-03-24T21:27:00.808Z,4.10
2018-03-24T21:29:27.272Z,4.10
2018-03-24T21:31:53.901Z,4.10
2018-03-24T21:34:21.139Z,4.10
2018-03-24T21:36:48.427Z,4.10
2018-03-24T21:39:14.904Z,4.10
2018-03-24T21:41:41.375Z,4.10
2018-03-24T21:44:08.585Z,4.10
2018-03-24T21:46:34.985Z,4.10
2018-03-24T21:49:01.379Z,4.10
2018-03-24T21:51:30.912Z,4.10
2018-03-24T21:53:57.431Z,4.10
2018-03-24T21:56:31.738Z,4.10
2018-03-24T21:58:59.012Z,4.00
2018-03-24T22:01:25.889Z,4.00
2018-03-24T22:03:53.146Z,4.10
2018-03-24T22:06:19.581Z,4.10
2018-03-24T22:08:46.587Z,4.10
2018-03-24T22:11:13.035Z,4.10
2018-03-24T22:13:39.539Z,4.10
2018-03-24T22:16:06.207Z,4.00
2018-03-24T22:18:32.726Z,4.00
2018-03-24T22:21:00.067Z,4.00
2018-03-24T22:23:27.297Z,4.00
2018-03-24T22:25:54.523Z,4.00
2018-03-24T22:28:20.926Z,4.00
2018-03-24T22:30:47.406Z,4.00
2018-03-24T22:33:13.836Z,4.00
2018-03-24T22:35:40.435Z,4.00
2018-03-24T22:38:07.847Z,4.00
2018-03-24T22:40:34.331Z,4.00
2018-03-24T22:43:00.913Z,4.00
2018-03-24T22:45:27.355Z,4.00
2018-03-24T22:47:53.857Z,4.00
2018-03-24T22:50:20.291Z,4.00
2018-03-24T22:52:47.064Z,4.00
2018-03-24T22:55:13.533Z,4.00
2018-03-24T22:57:40.761Z,3.90
2018-03-24T23:00:07.986Z,3.90
2018-03-24T23:02:34.429Z,3.90
2018-03-24T23:05:00.917Z,3.90
2018-03-24T23:07:27.348Z,3.90
2018-03-24T23:09:53.782Z,3.90
2018-03-24T23:12:20.471Z,3.90
2018-03-24T23:14:46.911Z,3.90
2018-03-24T23:17:13.433Z,3.90
2018-03-24T23:19:39.915Z,3.90
2018-03-24T23:22:07.127Z,3.90
2018-03-24T23:24:34.345Z,3.90
2018-03-24T23:27:00.820Z,3.90
2018-03-24T23:29:27.279Z,3.90
2018-03-24T23:31:54.542Z,3.90
2018-03-24T23:34:20.960Z,3.80
2018-03-24T23:36:48.182Z,3.90
2018-03-24T23:39:14.593Z,3.90
2018-03-24T23:41:41.358Z,3.90
2018-03-24T23:44:07.821Z,3.80
2018-03-24T23:46:35.115Z,3.90
2018-03-24T23:49:01.600Z,3.90
2018-03-24T23:51:28.008Z,3.90
2018-03-24T23:53:54.584Z,3.90
2018-03-24T23:56:21.741Z,3.80
2018-03-24T23:58:49.009Z,3.80
